createdAt,value
2018-09-29T00:00:56.655Z,15.46
2018-09-29T00:05:40.549Z,15.31
2018-09-29T00:10:23.514Z,15.40
2018-09-29T00:15:07.260Z,15.43
2018-09-29T00:19:50.136Z,15.44
2018-09-29T00:24:33.131Z,14.99
2018-09-29T00:29:16.070Z,14.96
2018-09-29T00:33:59.165Z,15.25
2018-09-29T00:38:42.044Z,15.40
2018-09-29T00:43:24.976Z,15.08
2018-09-29T00:48:08.071Z,15.10
2018-09-29T00:52:51.014Z,15.15
2018-09-29T00:57:34.019Z,14.89
2018-09-29T01:02:16.853Z,15.10
2018-09-29T01:06:59.790Z,15.33
2018-09-29T01:11:42.682Z,15.07
2018-09-29T01:16:25.593Z,14.91
2018-09-29T01:21:09.925Z,15.06
2018-09-29T01:25:52.857Z,15.39
2018-09-29T01:30:35.720Z,15.37
2018-09-29T01:35:18.653Z,15.37
2018-09-29T01:40:01.518Z,15.37
2018-09-29T01:44:44.443Z,15.34
2018-09-29T01:49:27.415Z,15.39
2018-09-29T01:54:10.414Z,15.38
2018-09-29T01:58:53.286Z,15.48
2018-09-29T02:03:36.179Z,15.26
2018-09-29T02:08:19.027Z,14.96
2018-09-29T02:13:02.141Z,14.96
2018-09-29T02:17:45.112Z,15.19
2018-09-29T02:22:27.981Z,15.15
2018-09-29T02:27:10.909Z,14.93
2018-09-29T02:31:53.749Z,14.88
2018-09-29T02:36:36.623Z,15.20
2018-09-29T02:41:19.466Z,14.81
2018-09-29T02:46:02.378Z,14.64
2018-09-29T02:50:45.275Z,14.71
2018-09-29T02:55:29.203Z,14.47
2018-09-29T03:00:12.047Z,14.49
2018-09-29T03:04:54.930Z,15.03
2018-09-29T03:09:37.769Z,14.96
2018-09-29T03:14:20.707Z,14.70
2018-09-29T03:20:32.946Z,14.86
2018-09-29T03:25:16.872Z,14.99
2018-09-29T03:29:59.741Z,15.04
2018-09-29T03:34:43.014Z,15.02
2018-09-29T03:39:25.845Z,15.01
2018-09-29T03:44:09.594Z,14.53
2018-09-29T03:48:52.446Z,14.54
2018-09-29T03:53:35.574Z,14.62
2018-09-29T03:58:18.380Z,14.71
2018-09-29T04:03:01.231Z,14.86
2018-09-29T04:07:44.081Z,14.70
2018-09-29T04:12:26.912Z,14.43
2018-09-29T04:17:09.854Z,14.55
2018-09-29T04:21:52.713Z,14.81
2018-09-29T04:26:35.610Z,14.84
2018-09-29T04:31:18.473Z,14.98
2018-09-29T04:36:01.425Z,15.03
2018-09-29T04:40:44.322Z,15.05
2018-09-29T04:45:28.178Z,14.97
2018-09-29T04:50:11.001Z,15.13
2018-09-29T04:54:53.910Z,15.15
2018-09-29T04:59:36.757Z,15.13
2018-09-29T05:04:20.100Z,15.30
2018-09-29T05:09:03.135Z,15.33
2018-09-29T05:13:46.221Z,15.36
2018-09-29T05:18:29.110Z,15.45
2018-09-29T05:23:12.066Z,15.31
2018-09-29T05:27:54.897Z,15.40
2018-09-29T05:32:37.731Z,15.49
2018-09-29T05:37:20.629Z,15.61
2018-09-29T05:42:03.464Z,15.79
2018-09-29T05:46:50.232Z,15.83
2018-09-29T05:51:33.109Z,16.05
2018-09-29T05:56:16.028Z,16.30
2018-09-29T06:00:58.855Z,16.34
2018-09-29T06:05:41.779Z,16.38
2018-09-29T06:10:24.662Z,16.47
2018-09-29T06:15:07.586Z,16.55
2018-09-29T06:19:50.441Z,16.56
2018-09-29T06:24:33.362Z,16.59
2018-09-29T06:29:16.254Z,16.69
2018-09-29T06:34:00.791Z,16.82
2018-09-29T06:38:43.652Z,17.03
2018-09-29T06:43:26.662Z,16.94
2018-09-29T06:48:09.569Z,16.90
2018-09-29T06:52:52.664Z,17.01
2018-09-29T06:57:35.483Z,17.13
2018-09-29T07:02:18.469Z,17.30
2018-09-29T07:07:03.333Z,17.30
2018-09-29T07:11:47.150Z,17.52
2018-09-29T07:16:30.158Z,17.65
2018-09-29T07:21:13.036Z,17.69
2018-09-29T07:25:56.993Z,17.79
2018-09-29T07:30:39.850Z,17.83
2018-09-29T07:35:22.697Z,17.91
2018-09-29T07:40:05.829Z,18.04
2018-09-29T07:44:48.710Z,18.10
2018-09-29T07:49:31.571Z,18.19
2018-09-29T07:54:14.557Z,18.33
2018-09-29T07:58:57.699Z,18.41
2018-09-29T08:03:40.777Z,18.46
2018-09-29T08:08:23.616Z,18.65
2018-09-29T08:13:06.604Z,18.74
2018-09-29T08:17:49.426Z,19.06
2018-09-29T08:22:32.318Z,19.20
2018-09-29T08:27:15.188Z,19.54
2018-09-29T08:31:58.078Z,20.41
2018-09-29T08:36:40.970Z,20.29
2018-09-29T08:41:23.813Z,21.09
2018-09-29T08:46:08.674Z,20.78
2018-09-29T08:50:51.502Z,21.08
2018-09-29T08:55:34.626Z,21.52
2018-09-29T09:00:17.434Z,21.72
2018-09-29T09:05:01.329Z,21.40
2018-09-29T09:09:44.136Z,21.24
2018-09-29T09:14:27.093Z,21.06
2018-09-29T09:19:09.953Z,21.21
2018-09-29T09:23:53.293Z,21.61
2018-09-29T09:28:36.899Z,22.14
2018-09-29T09:33:19.918Z,21.90
2018-09-29T09:38:02.781Z,22.10
2018-09-29T09:42:46.739Z,22.11
2018-09-29T09:47:29.590Z,22.61
2018-09-29T09:52:12.445Z,23.07
2018-09-29T09:56:55.305Z,23.13
2018-09-29T10:01:43.649Z,22.79
2018-09-29T10:06:26.585Z,22.75
2018-09-29T10:11:09.399Z,22.67
2018-09-29T10:15:52.307Z,22.52
2018-09-29T10:20:35.125Z,22.42
2018-09-29T10:25:18.145Z,22.21
2018-09-29T10:30:00.987Z,21.99
2018-09-29T10:34:44.066Z,21.95
2018-09-29T10:39:26.930Z,21.85
2018-09-29T10:44:11.083Z,22.01
2018-09-29T10:48:53.975Z,21.66
2018-09-29T10:53:36.974Z,21.40
2018-09-29T10:58:19.866Z,21.41
2018-09-29T11:03:02.910Z,21.56
2018-09-29T11:07:45.795Z,21.60
2018-09-29T11:12:28.897Z,21.74
2018-09-29T11:17:11.714Z,21.74
2018-09-29T11:21:54.562Z,21.78
2018-09-29T11:26:39.614Z,21.62
2018-09-29T11:31:22.500Z,21.59
2018-09-29T11:36:06.378Z,21.50
2018-09-29T11:40:49.263Z,21.53
2018-09-29T11:45:33.256Z,21.52
2018-09-29T11:50:16.129Z,21.52
2018-09-29T11:54:59.197Z,21.48
2018-09-29T11:59:42.052Z,21.50
2018-09-29T12:04:25.445Z,21.45
2018-09-29T12:09:10.846Z,21.45
2018-09-29T12:13:53.793Z,21.43
2018-09-29T12:18:36.624Z,21.39
2018-09-29T12:23:19.603Z,21.24
2018-09-29T12:28:02.512Z,21.24
2018-09-29T12:32:45.561Z,21.31
2018-09-29T12:37:28.473Z,21.36
2018-09-29T12:42:12.430Z,21.26
2018-09-29T12:46:55.294Z,21.27
2018-09-29T12:51:38.232Z,21.18
2018-09-29T12:56:23.112Z,21.14
2018-09-29T13:01:05.954Z,21.10
2018-09-29T13:05:49.910Z,21.08
2018-09-29T13:10:32.759Z,21.09
2018-09-29T13:15:15.815Z,20.94
2018-09-29T13:19:58.686Z,20.92
2018-09-29T13:24:41.624Z,20.99
2018-09-29T13:29:24.533Z,20.96
2018-09-29T13:34:07.495Z,20.84
2018-09-29T13:38:50.421Z,20.73
2018-09-29T13:43:33.421Z,20.92
2018-09-29T13:48:18.703Z,20.81
2018-09-29T13:53:01.794Z,20.89
2018-09-29T13:57:44.650Z,20.74
2018-09-29T14:02:30.496Z,20.87
2018-09-29T14:07:21.100Z,20.87
2018-09-29T14:12:04.278Z,20.80
2018-09-29T14:16:47.106Z,20.83
2018-09-29T14:21:30.330Z,20.87
2018-09-29T14:26:13.234Z,20.63
2018-09-29T14:30:57.050Z,20.56
2018-09-29T14:35:40.443Z,20.38
2018-09-29T14:40:23.270Z,20.74
2018-09-29T14:45:06.359Z,20.76
2018-09-29T14:49:49.231Z,20.78
2018-09-29T14:54:32.348Z,20.28
2018-09-29T14:59:15.219Z,20.35
2018-09-29T15:03:58.374Z,20.65
2018-09-29T15:08:41.314Z,20.77
2018-09-29T15:13:25.447Z,20.29
2018-09-29T15:18:08.303Z,20.44
2018-09-29T15:22:51.360Z,20.52
2018-09-29T15:27:34.187Z,20.53
2018-09-29T15:32:18.231Z,20.51
2018-09-29T15:37:01.112Z,20.11
2018-09-29T15:41:44.256Z,19.97
2018-09-29T15:46:28.213Z,19.99
2018-09-29T15:51:11.137Z,19.95
2018-09-29T15:55:55.175Z,20.11
2018-09-29T16:00:38.254Z,19.98
2018-09-29T16:05:23.250Z,19.97
2018-09-29T16:10:06.188Z,19.77
2018-09-29T16:14:49.259Z,19.88
2018-09-29T16:19:32.195Z,19.62
2018-09-29T16:24:15.335Z,19.54
2018-09-29T16:28:58.549Z,19.55
2018-09-29T16:33:41.655Z,19.10
2018-09-29T16:38:24.989Z,18.92
2018-09-29T16:43:07.859Z,18.78
2018-09-29T16:47:51.682Z,18.78
2018-09-29T16:52:34.763Z,18.58
2018-09-29T16:57:17.814Z,18.79
2018-09-29T17:02:00.923Z,18.70
2018-09-29T17:06:43.806Z,18.63
2018-09-29T17:11:27.707Z,18.66
2018-09-29T17:16:10.608Z,18.70
2018-09-29T17:20:53.510Z,18.35
2018-09-29T17:25:37.750Z,18.39
2018-09-29T17:30:21.814Z,18.47
2018-09-29T17:35:12.207Z,18.38
2018-09-29T17:39:55.136Z,18.16
2018-09-29T17:44:38.280Z,18.20
2018-09-29T17:49:21.185Z,17.95
2018-09-29T17:54:04.992Z,17.81
2018-09-29T17:58:48.431Z,17.99
2018-09-29T18:03:31.483Z,17.99
2018-09-29T18:08:14.975Z,18.01
2018-09-29T18:12:59.024Z,17.89
2018-09-29T18:17:41.936Z,17.71
2018-09-29T18:22:25.282Z,17.61
2018-09-29T18:32:09.272Z,17.28
2018-09-29T18:36:52.135Z,17.21
2018-09-29T18:41:35.434Z,16.96
2018-09-29T18:46:18.366Z,17.01
2018-09-29T18:51:02.343Z,16.89
2018-09-29T18:55:45.256Z,16.61
2018-09-29T19:00:28.122Z,16.49
2018-09-29T19:05:11.242Z,16.77
2018-09-29T19:10:10.638Z,16.66
2018-09-29T19:14:55.689Z,16.55
2018-09-29T19:19:38.571Z,16.59
2018-09-29T19:24:22.712Z,16.55
2018-09-29T19:29:06.547Z,16.37
2018-09-29T19:33:50.494Z,16.41
2018-09-29T19:38:33.892Z,16.18
2018-09-29T19:43:17.490Z,16.07
2018-09-29T19:48:00.550Z,16.22
2018-09-29T19:52:43.631Z,16.06
2018-09-29T19:57:26.522Z,16.12
2018-09-29T20:02:09.606Z,15.97
2018-09-29T20:06:52.463Z,16.00
2018-09-29T20:11:35.402Z,15.90
2018-09-29T20:16:18.299Z,15.86
2018-09-29T20:21:01.414Z,15.87
2018-09-29T20:25:44.309Z,15.61
2018-09-29T20:30:27.246Z,15.88
2018-09-29T20:35:10.250Z,15.69
2018-09-29T20:39:53.111Z,15.52
2018-09-29T20:44:36.020Z,15.61
2018-09-29T20:49:18.991Z,15.43
2018-09-29T20:54:02.077Z,15.37
2018-09-29T20:58:44.957Z,15.62
2018-09-29T21:03:27.827Z,15.57
2018-09-29T21:08:10.699Z,15.39
2018-09-29T21:12:53.593Z,15.24
2018-09-29T21:17:36.466Z,15.37
2018-09-29T21:22:19.422Z,15.35
2018-09-29T21:27:02.257Z,15.27
2018-09-29T21:31:46.151Z,15.20
2018-09-29T21:36:29.093Z,15.32
2018-09-29T21:41:12.178Z,14.99
2018-09-29T21:45:55.041Z,15.12
2018-09-29T21:50:38.969Z,14.94
2018-09-29T21:55:21.841Z,14.90
2018-09-29T22:00:04.978Z,15.06
2018-09-29T22:04:47.860Z,15.15
2018-09-29T22:09:30.755Z,15.03
2018-09-29T22:14:13.638Z,14.90
2018-09-29T22:18:56.553Z,14.83
2018-09-29T22:23:39.790Z,14.80
2018-09-29T22:28:22.630Z,14.78
2018-09-29T22:33:06.848Z,14.72
2018-09-29T22:37:50.011Z,14.78
2018-09-29T22:42:33.392Z,14.93
2018-09-29T22:47:16.245Z,14.74
2018-09-29T22:51:59.234Z,14.50
2018-09-29T22:56:42.095Z,14.79
2018-09-29T23:01:26.077Z,14.47
2018-09-29T23:06:08.906Z,14.58
2018-09-29T23:10:52.894Z,14.51
2018-09-29T23:15:35.742Z,14.47
2018-09-29T23:20:19.663Z,14.54
2018-09-29T23:25:02.498Z,14.54
2018-09-29T23:29:45.382Z,14.14
2018-09-29T23:34:29.279Z,14.36
2018-09-29T23:39:12.133Z,14.31
2018-09-29T23:43:55.049Z,14.33
2018-09-29T23:48:37.890Z,14.30
2018-09-29T23:53:24.689Z,14.39
2018-09-29T23:58:07.555Z,14.26
